QTR789A OJAI-OBBI
Flight info
| Callsign | QTR789A |
|---|---|
| Flight time | 1h 47m |
| Altitude | 41000 |
| Route | KULDI1C/26L KULDI N318 NADEN/N0412F210 N318 LADNA |
| Aircraft | A359/H-SDE2E3GHIJ3J4J5LM1ORWXY/LB1D1 |
Departure
| Time | 2026-05-05 18:31 |
|---|---|
| Airport | Queen Alia International Airport (OJAI) |
Arrival
| Time | 2026-05-05 20:18 |
|---|---|
| Airport | Bahrain International Airport (OBBI) |
| Time | Latitude | Longitude | Altitude | Speed | Heading |
|---|---|---|---|---|---|
| 2026-05-05 17:39 | 31.72076 | 35.99016 | 2424 ft | 0 kts | 351° |
| 2026-05-05 18:19 | 31.72054 | 35.99020 | 2422 ft | 4 kts | 352° |
| 2026-05-05 18:19 | 31.72031 | 35.99025 | 2420 ft | 4 kts | 326° |
| 2026-05-05 18:20 | 31.72020 | 35.99046 | 2420 ft | 4 kts | 267° |
| 2026-05-05 18:20 | 31.72023 | 35.99074 | 2420 ft | 1 kts | 260° |
| 2026-05-05 18:20 | 31.72024 | 35.99080 | 2420 ft | 0 kts | 260° |
| 2026-05-05 18:22 | 31.72023 | 35.99079 | 2420 ft | 1 kts | 260° |
| 2026-05-05 18:22 | 31.72020 | 35.99054 | 2420 ft | 6 kts | 261° |
| 2026-05-05 18:22 | 31.72013 | 35.98997 | 2421 ft | 9 kts | 261° |
| 2026-05-05 18:23 | 31.71995 | 35.98920 | 2421 ft | 10 kts | 248° |
| 2026-05-05 18:23 | 31.71957 | 35.98898 | 2423 ft | 6 kts | 181° |
| 2026-05-05 18:23 | 31.71904 | 35.98912 | 2422 ft | 10 kts | 158° |
| 2026-05-05 18:23 | 31.71853 | 35.98986 | 2421 ft | 14 kts | 102° |
| 2026-05-05 18:24 | 31.71870 | 35.99114 | 2422 ft | 18 kts | 79° |
| 2026-05-05 18:24 | 31.71896 | 35.99277 | 2422 ft | 22 kts | 79° |
| 2026-05-05 18:24 | 31.71926 | 35.99466 | 2423 ft | 25 kts | 79° |
| 2026-05-05 18:24 | 31.71961 | 35.99680 | 2420 ft | 28 kts | 79° |
| 2026-05-05 18:25 | 31.71987 | 35.99901 | 2423 ft | 24 kts | 81° |
| 2026-05-05 18:25 | 31.72005 | 36.00027 | 2421 ft | 24 kts | 81° |
| 2026-05-05 18:25 | 31.72046 | 36.00312 | 2420 ft | 28 kts | 80° |
| 2026-05-05 18:25 | 31.72081 | 36.00548 | 2422 ft | 31 kts | 80° |
| 2026-05-05 18:26 | 31.72119 | 36.00803 | 2423 ft | 31 kts | 80° |
| 2026-05-05 18:26 | 31.72135 | 36.00914 | 2421 ft | 0 kts | 80° |
| 2026-05-05 18:26 | 31.72138 | 36.00933 | 2422 ft | 5 kts | 80° |
| 2026-05-05 18:27 | 31.72148 | 36.01007 | 2421 ft | 13 kts | 80° |
| 2026-05-05 18:27 | 31.72167 | 36.01139 | 2422 ft | 20 kts | 80° |
| 2026-05-05 18:27 | 31.72194 | 36.01319 | 2424 ft | 26 kts | 80° |
| 2026-05-05 18:27 | 31.72227 | 36.01544 | 2422 ft | 31 kts | 80° |
| 2026-05-05 18:28 | 31.72170 | 36.01813 | 2422 ft | 10 kts | 167° |
| 2026-05-05 18:28 | 31.72145 | 36.01818 | 2421 ft | 0 kts | 171° |
| 2026-05-05 18:29 | 31.72139 | 36.01819 | 2421 ft | 2 kts | 170° |
| 2026-05-05 18:29 | 31.72102 | 36.01826 | 2423 ft | 9 kts | 170° |
| 2026-05-05 18:29 | 31.72026 | 36.01831 | 2423 ft | 13 kts | 192° |
| 2026-05-05 18:30 | 31.71975 | 36.01761 | 2423 ft | 9 kts | 271° |
| 2026-05-05 18:30 | 31.71960 | 36.01639 | 2423 ft | 38 kts | 260° |
| 2026-05-05 18:30 | 31.71857 | 36.00930 | 2420 ft | 136 kts | 261° |
| 2026-05-05 18:30 | 31.71659 | 35.99545 | 2685 ft | 197 kts | 263° |
| 2026-05-05 18:31 | 31.71425 | 35.97819 | 3503 ft | 230 kts | 262° |
| 2026-05-05 18:31 | 31.71164 | 35.95819 | 4436 ft | 260 kts | 263° |
| 2026-05-05 18:31 | 31.70807 | 35.93770 | 5589 ft | 253 kts | 253° |
| 2026-05-05 18:31 | 31.69792 | 35.92114 | 6661 ft | 257 kts | 220° |
| 2026-05-05 18:32 | 31.68114 | 35.91317 | 7606 ft | 267 kts | 197° |
| 2026-05-05 18:32 | 31.66294 | 35.90917 | 8535 ft | 271 kts | 196° |
| 2026-05-05 18:32 | 31.64432 | 35.90494 | 9522 ft | 274 kts | 197° |
| 2026-05-05 18:32 | 31.62559 | 35.90028 | 10458 ft | 277 kts | 198° |
| 2026-05-05 18:33 | 31.60659 | 35.89530 | 11283 ft | 283 kts | 198° |
| 2026-05-05 18:33 | 31.58722 | 35.89011 | 12134 ft | 288 kts | 198° |
| 2026-05-05 18:33 | 31.56746 | 35.88475 | 13022 ft | 293 kts | 198° |
| 2026-05-05 18:33 | 31.54748 | 35.87932 | 13901 ft | 298 kts | 198° |
| 2026-05-05 18:34 | 31.52699 | 35.87379 | 14547 ft | 304 kts | 197° |
| 2026-05-05 18:34 | 31.50580 | 35.87146 | 14978 ft | 312 kts | 181° |
| 2026-05-05 18:34 | 31.48471 | 35.87727 | 15387 ft | 323 kts | 160° |
| 2026-05-05 18:34 | 31.46545 | 35.89233 | 15760 ft | 348 kts | 139° |
| 2026-05-05 18:35 | 31.45149 | 35.91645 | 16110 ft | 373 kts | 114° |
| 2026-05-05 18:35 | 31.44636 | 35.94681 | 16529 ft | 390 kts | 90° |
| 2026-05-05 18:35 | 31.44660 | 35.97883 | 17079 ft | 398 kts | 97° |
| 2026-05-05 18:35 | 31.44082 | 36.01063 | 17771 ft | 402 kts | 107° |
| 2026-05-05 18:36 | 31.43337 | 36.04237 | 18470 ft | 406 kts | 107° |
| 2026-05-05 18:36 | 31.42563 | 36.07447 | 19046 ft | 413 kts | 108° |
| 2026-05-05 18:36 | 31.41776 | 36.10704 | 19603 ft | 420 kts | 108° |
| 2026-05-05 18:36 | 31.40974 | 36.14020 | 20196 ft | 427 kts | 108° |
| 2026-05-05 18:37 | 31.40172 | 36.17337 | 20802 ft | 433 kts | 108° |
| 2026-05-05 18:37 | 31.39348 | 36.20751 | 21400 ft | 439 kts | 108° |
| 2026-05-05 18:37 | 31.38505 | 36.24220 | 22032 ft | 446 kts | 108° |
| 2026-05-05 18:37 | 31.37649 | 36.27738 | 22618 ft | 454 kts | 109° |
| 2026-05-05 18:38 | 31.36777 | 36.31317 | 23235 ft | 460 kts | 109° |
| 2026-05-05 18:38 | 31.35896 | 36.34938 | 23835 ft | 466 kts | 109° |
| 2026-05-05 18:38 | 31.35001 | 36.38606 | 24368 ft | 471 kts | 109° |
| 2026-05-05 18:38 | 31.34098 | 36.42306 | 24929 ft | 476 kts | 109° |
| 2026-05-05 18:39 | 31.33183 | 36.46048 | 25470 ft | 481 kts | 109° |
| 2026-05-05 18:39 | 31.32257 | 36.49831 | 26016 ft | 485 kts | 109° |
| 2026-05-05 18:39 | 31.31436 | 36.53625 | 26500 ft | 493 kts | 104° |
| 2026-05-05 18:39 | 31.30916 | 36.57616 | 27051 ft | 499 kts | 99° |
| 2026-05-05 18:40 | 31.30560 | 36.61663 | 27584 ft | 504 kts | 97° |
| 2026-05-05 18:40 | 31.30282 | 36.65771 | 28108 ft | 509 kts | 97° |
| 2026-05-05 18:40 | 31.30028 | 36.69919 | 28619 ft | 514 kts | 97° |
| 2026-05-05 18:40 | 31.29766 | 36.74111 | 29125 ft | 519 kts | 97° |
| 2026-05-05 18:41 | 31.29488 | 36.78335 | 29586 ft | 523 kts | 98° |
| 2026-05-05 18:41 | 31.29191 | 36.82590 | 30068 ft | 528 kts | 98° |
| 2026-05-05 18:41 | 31.28883 | 36.86816 | 30473 ft | 531 kts | 98° |
| 2026-05-05 18:41 | 31.28562 | 36.91130 | 30907 ft | 534 kts | 98° |
| 2026-05-05 18:42 | 31.28233 | 36.95474 | 31332 ft | 538 kts | 98° |
| 2026-05-05 18:42 | 31.27901 | 36.99846 | 31698 ft | 542 kts | 98° |
| 2026-05-05 18:42 | 31.27566 | 37.04246 | 32116 ft | 544 kts | 98° |
| 2026-05-05 18:42 | 31.27228 | 37.08666 | 32510 ft | 547 kts | 98° |
| 2026-05-05 18:43 | 31.26887 | 37.13103 | 32861 ft | 551 kts | 98° |
| 2026-05-05 18:43 | 31.26548 | 37.17520 | 33224 ft | 554 kts | 98° |
| 2026-05-05 18:43 | 31.26141 | 37.21994 | 33555 ft | 555 kts | 103° |
| 2026-05-05 18:43 | 31.25273 | 37.26364 | 33887 ft | 551 kts | 112° |
| 2026-05-05 18:44 | 31.24120 | 37.30643 | 34196 ft | 552 kts | 114° |
| 2026-05-05 18:44 | 31.22885 | 37.34892 | 34493 ft | 553 kts | 115° |
| 2026-05-05 18:44 | 31.21604 | 37.39129 | 34777 ft | 554 kts | 115° |
| 2026-05-05 18:44 | 31.20304 | 37.43364 | 35165 ft | 553 kts | 116° |
| 2026-05-05 18:45 | 31.19004 | 37.47592 | 35586 ft | 552 kts | 116° |
| 2026-05-05 18:45 | 31.17711 | 37.51808 | 35962 ft | 551 kts | 116° |
| 2026-05-05 18:45 | 31.16442 | 37.55955 | 36322 ft | 551 kts | 116° |
| 2026-05-05 18:45 | 31.15157 | 37.60166 | 36688 ft | 550 kts | 116° |
| 2026-05-05 18:46 | 31.13880 | 37.64380 | 37069 ft | 550 kts | 116° |
| 2026-05-05 18:46 | 31.12604 | 37.68582 | 37440 ft | 549 kts | 116° |
| 2026-05-05 18:46 | 31.11329 | 37.72774 | 37763 ft | 548 kts | 116° |
| 2026-05-05 18:46 | 31.10054 | 37.76962 | 38154 ft | 547 kts | 117° |
| 2026-05-05 18:47 | 31.08779 | 37.81143 | 38490 ft | 546 kts | 117° |
| 2026-05-05 18:47 | 31.07504 | 37.85315 | 38788 ft | 546 kts | 117° |
| 2026-05-05 18:47 | 31.06228 | 37.89484 | 39029 ft | 546 kts | 117° |
| 2026-05-05 18:47 | 31.04970 | 37.93591 | 39249 ft | 546 kts | 117° |
| 2026-05-05 18:48 | 31.03691 | 37.97761 | 39464 ft | 545 kts | 117° |
| 2026-05-05 18:48 | 31.02419 | 38.01905 | 39763 ft | 543 kts | 117° |
| 2026-05-05 18:48 | 31.01142 | 38.06059 | 39984 ft | 543 kts | 117° |
| 2026-05-05 18:48 | 30.99867 | 38.10199 | 40158 ft | 544 kts | 117° |
| 2026-05-05 18:49 | 30.98587 | 38.14348 | 40360 ft | 544 kts | 117° |
| 2026-05-05 18:49 | 30.97304 | 38.18503 | 40577 ft | 544 kts | 117° |
| 2026-05-05 18:49 | 30.96026 | 38.22639 | 40778 ft | 543 kts | 117° |
| 2026-05-05 18:49 | 30.94747 | 38.26777 | 40985 ft | 542 kts | 117° |
| 2026-05-05 18:50 | 30.92201 | 38.34986 | 41037 ft | 542 kts | 117° |
| 2026-05-05 18:50 | 30.89634 | 38.43240 | 41035 ft | 543 kts | 117° |
| 2026-05-05 18:51 | 30.87061 | 38.51497 | 41025 ft | 543 kts | 117° |
| 2026-05-05 18:51 | 30.84479 | 38.59759 | 41025 ft | 543 kts | 117° |
| 2026-05-05 18:52 | 30.81916 | 38.67943 | 41023 ft | 543 kts | 117° |
| 2026-05-05 18:52 | 30.79292 | 38.76164 | 41023 ft | 539 kts | 121° |
| 2026-05-05 18:53 | 30.76116 | 38.83998 | 41026 ft | 534 kts | 124° |
| 2026-05-05 18:53 | 30.72810 | 38.91734 | 41013 ft | 534 kts | 125° |
| 2026-05-05 18:54 | 30.69504 | 38.99387 | 41028 ft | 533 kts | 125° |
| 2026-05-05 18:54 | 30.66181 | 39.07084 | 41030 ft | 533 kts | 125° |
| 2026-05-05 18:55 | 30.62860 | 39.14782 | 41031 ft | 533 kts | 125° |
| 2026-05-05 18:55 | 30.59533 | 39.22483 | 41040 ft | 534 kts | 125° |
| 2026-05-05 18:56 | 30.56201 | 39.30182 | 41040 ft | 534 kts | 125° |
| 2026-05-05 18:56 | 30.52889 | 39.37819 | 41035 ft | 534 kts | 126° |
| 2026-05-05 18:57 | 30.49541 | 39.45521 | 41043 ft | 535 kts | 126° |
| 2026-05-05 18:57 | 30.46190 | 39.53214 | 41045 ft | 535 kts | 126° |
| 2026-05-05 18:58 | 30.42833 | 39.60907 | 41043 ft | 535 kts | 126° |
| 2026-05-05 18:58 | 30.38962 | 39.68053 | 41047 ft | 523 kts | 135° |
| 2026-05-05 18:59 | 30.34675 | 39.74840 | 41048 ft | 522 kts | 137° |
| 2026-05-05 18:59 | 30.30319 | 39.81563 | 41035 ft | 521 kts | 137° |
| 2026-05-05 19:00 | 30.25965 | 39.88278 | 41048 ft | 522 kts | 137° |
| 2026-05-05 19:00 | 30.21641 | 39.94962 | 41045 ft | 523 kts | 137° |
| 2026-05-05 19:01 | 30.17292 | 40.01688 | 41048 ft | 522 kts | 137° |
| 2026-05-05 19:01 | 30.12947 | 40.08398 | 41045 ft | 521 kts | 137° |
| 2026-05-05 19:02 | 30.08600 | 40.15099 | 41046 ft | 521 kts | 137° |
| 2026-05-05 19:02 | 30.04253 | 40.21784 | 41043 ft | 521 kts | 137° |
| 2026-05-05 19:03 | 29.99931 | 40.28424 | 41041 ft | 521 kts | 137° |
| 2026-05-05 19:03 | 29.95576 | 40.35109 | 41047 ft | 521 kts | 138° |
| 2026-05-05 19:04 | 29.91220 | 40.41781 | 41041 ft | 521 kts | 137° |
| 2026-05-05 19:04 | 29.86863 | 40.48443 | 41025 ft | 521 kts | 138° |
| 2026-05-05 19:05 | 29.82490 | 40.55117 | 41042 ft | 522 kts | 138° |
| 2026-05-05 19:05 | 29.78141 | 40.61747 | 41044 ft | 523 kts | 138° |
| 2026-05-05 19:06 | 29.74080 | 40.68795 | 41039 ft | 531 kts | 133° |
| 2026-05-05 19:06 | 29.70178 | 40.76009 | 41030 ft | 532 kts | 132° |
| 2026-05-05 19:07 | 29.66321 | 40.83204 | 41034 ft | 532 kts | 132° |
| 2026-05-05 19:07 | 29.62430 | 40.90435 | 41035 ft | 531 kts | 132° |
| 2026-05-05 19:08 | 29.58538 | 40.97637 | 41026 ft | 530 kts | 132° |
| 2026-05-05 19:08 | 29.54646 | 41.04821 | 41024 ft | 529 kts | 132° |
| 2026-05-05 19:09 | 29.50777 | 41.11943 | 41021 ft | 529 kts | 133° |
| 2026-05-05 19:09 | 29.46881 | 41.19105 | 41014 ft | 528 kts | 133° |
| 2026-05-05 19:10 | 29.42988 | 41.26251 | 41015 ft | 528 kts | 133° |
| 2026-05-05 19:10 | 29.39092 | 41.33389 | 41015 ft | 528 kts | 133° |
| 2026-05-05 19:11 | 29.35191 | 41.40526 | 41013 ft | 528 kts | 133° |
| 2026-05-05 19:11 | 29.31312 | 41.47612 | 41006 ft | 528 kts | 133° |
| 2026-05-05 19:12 | 29.27404 | 41.54739 | 41006 ft | 528 kts | 133° |
| 2026-05-05 19:12 | 29.23486 | 41.61869 | 41001 ft | 529 kts | 133° |
| 2026-05-05 19:13 | 29.19572 | 41.68984 | 41000 ft | 529 kts | 133° |
| 2026-05-05 19:13 | 29.15673 | 41.76059 | 40998 ft | 529 kts | 133° |
| 2026-05-05 19:14 | 29.11744 | 41.83176 | 40996 ft | 529 kts | 133° |
| 2026-05-05 19:14 | 29.07809 | 41.90292 | 40996 ft | 529 kts | 133° |
| 2026-05-05 19:15 | 29.03876 | 41.97402 | 40995 ft | 529 kts | 133° |
| 2026-05-05 19:15 | 28.99930 | 42.04505 | 41000 ft | 531 kts | 133° |
| 2026-05-05 19:16 | 28.95964 | 42.11626 | 40994 ft | 531 kts | 133° |
| 2026-05-05 19:16 | 28.92026 | 42.18691 | 40993 ft | 532 kts | 133° |
| 2026-05-05 19:17 | 28.88055 | 42.25807 | 40988 ft | 532 kts | 132° |
| 2026-05-05 19:17 | 28.84077 | 42.32925 | 40988 ft | 532 kts | 132° |
| 2026-05-05 19:18 | 28.80121 | 42.39991 | 40984 ft | 532 kts | 133° |
| 2026-05-05 19:18 | 28.76138 | 42.47092 | 40982 ft | 531 kts | 132° |
| 2026-05-05 19:19 | 28.72163 | 42.54167 | 40979 ft | 530 kts | 132° |
| 2026-05-05 19:19 | 28.68185 | 42.61233 | 40979 ft | 530 kts | 133° |
| 2026-05-05 19:20 | 28.64210 | 42.68284 | 40976 ft | 528 kts | 132° |
| 2026-05-05 19:20 | 28.60562 | 42.75552 | 40977 ft | 536 kts | 127° |
| 2026-05-05 19:21 | 28.57177 | 42.83119 | 40972 ft | 537 kts | 126° |
| 2026-05-05 19:21 | 28.53757 | 42.90661 | 40969 ft | 536 kts | 127° |
| 2026-05-05 19:22 | 28.50278 | 42.98136 | 40966 ft | 535 kts | 127° |
| 2026-05-05 19:22 | 28.46790 | 43.05545 | 40970 ft | 535 kts | 127° |
| 2026-05-05 19:23 | 28.43284 | 43.12975 | 40951 ft | 534 kts | 127° |
| 2026-05-05 19:23 | 28.39774 | 43.20405 | 40958 ft | 533 kts | 127° |
| 2026-05-05 19:24 | 28.36264 | 43.27828 | 40945 ft | 533 kts | 127° |
| 2026-05-05 19:24 | 28.32754 | 43.35238 | 40947 ft | 533 kts | 127° |
| 2026-05-05 19:25 | 28.29263 | 43.42593 | 40951 ft | 533 kts | 127° |
| 2026-05-05 19:25 | 28.25746 | 43.49992 | 40944 ft | 533 kts | 127° |
| 2026-05-05 19:26 | 28.22223 | 43.57390 | 40935 ft | 533 kts | 127° |
| 2026-05-05 19:26 | 28.18696 | 43.64782 | 40917 ft | 533 kts | 127° |
| 2026-05-05 19:27 | 28.15167 | 43.72092 | 40931 ft | 532 kts | 128° |
| 2026-05-05 19:27 | 28.11600 | 43.79435 | 40931 ft | 532 kts | 128° |
| 2026-05-05 19:28 | 28.08032 | 43.86776 | 40924 ft | 532 kts | 128° |
| 2026-05-05 19:28 | 28.04473 | 43.94099 | 40925 ft | 531 kts | 128° |
| 2026-05-05 19:29 | 28.00913 | 44.01415 | 40922 ft | 530 kts | 128° |
| 2026-05-05 19:29 | 27.97375 | 44.08671 | 40918 ft | 530 kts | 128° |
| 2026-05-05 19:30 | 27.93815 | 44.15966 | 40919 ft | 530 kts | 128° |
| 2026-05-05 19:30 | 27.90292 | 44.23298 | 40899 ft | 530 kts | 127° |
| 2026-05-05 19:31 | 27.86808 | 44.30585 | 40909 ft | 530 kts | 127° |
| 2026-05-05 19:31 | 27.83292 | 44.37914 | 40926 ft | 530 kts | 127° |
| 2026-05-05 19:32 | 27.79768 | 44.45233 | 40910 ft | 531 kts | 127° |
| 2026-05-05 19:32 | 27.76233 | 44.52555 | 40912 ft | 531 kts | 127° |
| 2026-05-05 19:33 | 27.72688 | 44.59888 | 40908 ft | 532 kts | 127° |
| 2026-05-05 19:33 | 27.69168 | 44.67156 | 40908 ft | 532 kts | 127° |
| 2026-05-05 19:34 | 27.65681 | 44.74549 | 40902 ft | 539 kts | 122° |
| 2026-05-05 19:34 | 27.64390 | 44.78568 | 40902 ft | 550 kts | 111° |
| 2026-05-05 19:35 | 27.62623 | 44.86997 | 40904 ft | 555 kts | 108° |
| 2026-05-05 19:35 | 27.61088 | 44.95533 | 40903 ft | 555 kts | 108° |
| 2026-05-05 19:36 | 27.59577 | 45.04005 | 40909 ft | 556 kts | 108° |
| 2026-05-05 19:36 | 27.58019 | 45.12533 | 40902 ft | 556 kts | 108° |
| 2026-05-05 19:37 | 27.56438 | 45.21064 | 40911 ft | 556 kts | 108° |
| 2026-05-05 19:37 | 27.54846 | 45.29613 | 40904 ft | 558 kts | 108° |
| 2026-05-05 19:38 | 27.53253 | 45.38101 | 40896 ft | 558 kts | 108° |
| 2026-05-05 19:38 | 27.51640 | 45.46669 | 40898 ft | 559 kts | 108° |
| 2026-05-05 19:39 | 27.50048 | 45.55106 | 40896 ft | 559 kts | 108° |
| 2026-05-05 19:39 | 27.48417 | 45.63726 | 40891 ft | 559 kts | 108° |
| 2026-05-05 19:40 | 27.46803 | 45.72228 | 40873 ft | 559 kts | 108° |
| 2026-05-05 19:40 | 27.45183 | 45.80729 | 40884 ft | 559 kts | 108° |
| 2026-05-05 19:41 | 27.43553 | 45.89249 | 40885 ft | 559 kts | 108° |
| 2026-05-05 19:41 | 27.41913 | 45.97796 | 40892 ft | 559 kts | 108° |
| 2026-05-05 19:42 | 27.40265 | 46.06351 | 40849 ft | 559 kts | 109° |
| 2026-05-05 19:42 | 27.38613 | 46.14901 | 40876 ft | 559 kts | 109° |
| 2026-05-05 19:43 | 27.36955 | 46.23449 | 40884 ft | 559 kts | 109° |
| 2026-05-05 19:43 | 27.35303 | 46.31944 | 40882 ft | 560 kts | 109° |
| 2026-05-05 19:44 | 27.33750 | 46.40538 | 40872 ft | 561 kts | 107° |
| 2026-05-05 19:44 | 27.33183 | 46.43856 | 40854 ft | 561 kts | 107° |
| 2026-05-05 19:45 | 27.31799 | 46.51975 | 40873 ft | 560 kts | 107° |
| 2026-05-05 19:45 | 27.30307 | 46.60566 | 40870 ft | 560 kts | 107° |
| 2026-05-05 19:46 | 27.28793 | 46.69155 | 40881 ft | 560 kts | 107° |
| 2026-05-05 19:46 | 27.27269 | 46.77741 | 40861 ft | 560 kts | 108° |
| 2026-05-05 19:47 | 27.25752 | 46.86262 | 40862 ft | 559 kts | 108° |
| 2026-05-05 19:47 | 27.24226 | 46.94817 | 40842 ft | 558 kts | 108° |
| 2026-05-05 19:48 | 27.22696 | 47.03354 | 40856 ft | 558 kts | 108° |
| 2026-05-05 19:48 | 27.21157 | 47.11906 | 40853 ft | 558 kts | 108° |
| 2026-05-05 19:49 | 27.19625 | 47.20389 | 40858 ft | 558 kts | 108° |
| 2026-05-05 19:49 | 27.18077 | 47.28938 | 40845 ft | 558 kts | 108° |
| 2026-05-05 19:50 | 27.16528 | 47.37464 | 40840 ft | 557 kts | 108° |
| 2026-05-05 19:50 | 27.14976 | 47.45969 | 40837 ft | 556 kts | 108° |
| 2026-05-05 19:51 | 27.13416 | 47.54485 | 40833 ft | 556 kts | 108° |
| 2026-05-05 19:51 | 27.11859 | 47.62926 | 40812 ft | 556 kts | 108° |
| 2026-05-05 19:52 | 27.10286 | 47.71399 | 40822 ft | 554 kts | 108° |
| 2026-05-05 19:52 | 27.08710 | 47.79860 | 40811 ft | 554 kts | 108° |
| 2026-05-05 19:53 | 27.07128 | 47.88325 | 40809 ft | 554 kts | 108° |
| 2026-05-05 19:53 | 27.05556 | 47.96719 | 40804 ft | 553 kts | 108° |
| 2026-05-05 19:54 | 27.03811 | 48.05097 | 40792 ft | 551 kts | 110° |
| 2026-05-05 19:54 | 27.01899 | 48.13406 | 40796 ft | 549 kts | 111° |
| 2026-05-05 19:55 | 27.00002 | 48.21695 | 40793 ft | 549 kts | 110° |
| 2026-05-05 19:55 | 26.98132 | 48.29999 | 40788 ft | 549 kts | 110° |
| 2026-05-05 19:56 | 26.96285 | 48.38243 | 40782 ft | 549 kts | 110° |
| 2026-05-05 19:56 | 26.94426 | 48.46522 | 40776 ft | 548 kts | 110° |
| 2026-05-05 19:57 | 26.92561 | 48.54797 | 40771 ft | 547 kts | 110° |
| 2026-05-05 19:57 | 26.90693 | 48.63053 | 40765 ft | 547 kts | 110° |
| 2026-05-05 19:58 | 26.88833 | 48.71249 | 40756 ft | 547 kts | 110° |
| 2026-05-05 19:58 | 26.87028 | 48.79531 | 40750 ft | 549 kts | 107° |
| 2026-05-05 19:59 | 26.85545 | 48.87920 | 40634 ft | 550 kts | 106° |
| 2026-05-05 19:59 | 26.84826 | 48.92138 | 40202 ft | 550 kts | 106° |
| 2026-05-05 19:59 | 26.84100 | 48.96339 | 39706 ft | 551 kts | 107° |
| 2026-05-05 19:59 | 26.83356 | 49.00549 | 39206 ft | 552 kts | 107° |
| 2026-05-05 20:00 | 26.82595 | 49.04777 | 38483 ft | 556 kts | 107° |
| 2026-05-05 20:00 | 26.81828 | 49.08982 | 37480 ft | 560 kts | 107° |
| 2026-05-05 20:00 | 26.81043 | 49.13256 | 36488 ft | 564 kts | 107° |
| 2026-05-05 20:00 | 26.80248 | 49.17571 | 35537 ft | 566 kts | 107° |
| 2026-05-05 20:01 | 26.79455 | 49.21882 | 34641 ft | 568 kts | 107° |
| 2026-05-05 20:01 | 26.78655 | 49.26223 | 33711 ft | 567 kts | 107° |
| 2026-05-05 20:01 | 26.77859 | 49.30540 | 32717 ft | 567 kts | 106° |
| 2026-05-05 20:01 | 26.77062 | 49.34856 | 31813 ft | 566 kts | 105° |
| 2026-05-05 20:02 | 26.76111 | 49.39114 | 30999 ft | 559 kts | 111° |
| 2026-05-05 20:02 | 26.74963 | 49.43241 | 30382 ft | 553 kts | 111° |
| 2026-05-05 20:02 | 26.73781 | 49.47309 | 29781 ft | 548 kts | 111° |
| 2026-05-05 20:02 | 26.72579 | 49.51345 | 29088 ft | 544 kts | 112° |
| 2026-05-05 20:03 | 26.71377 | 49.55339 | 28385 ft | 539 kts | 112° |
| 2026-05-05 20:03 | 26.70202 | 49.59231 | 27724 ft | 533 kts | 112° |
| 2026-05-05 20:03 | 26.69023 | 49.63136 | 27048 ft | 527 kts | 111° |
| 2026-05-05 20:03 | 26.67862 | 49.66991 | 26409 ft | 521 kts | 111° |
| 2026-05-05 20:04 | 26.66714 | 49.70813 | 25812 ft | 515 kts | 111° |
| 2026-05-05 20:04 | 26.65579 | 49.74594 | 25195 ft | 509 kts | 111° |
| 2026-05-05 20:04 | 26.64459 | 49.78323 | 24587 ft | 503 kts | 111° |
| 2026-05-05 20:04 | 26.63350 | 49.82013 | 23978 ft | 497 kts | 111° |
| 2026-05-05 20:05 | 26.62255 | 49.85654 | 23375 ft | 491 kts | 111° |
| 2026-05-05 20:05 | 26.61191 | 49.89199 | 22681 ft | 485 kts | 111° |
| 2026-05-05 20:05 | 26.60109 | 49.92790 | 21981 ft | 478 kts | 111° |
| 2026-05-05 20:05 | 26.59066 | 49.96234 | 21308 ft | 472 kts | 111° |
| 2026-05-05 20:06 | 26.58021 | 49.99685 | 20638 ft | 466 kts | 110° |
| 2026-05-05 20:06 | 26.56980 | 50.03092 | 19991 ft | 460 kts | 110° |
| 2026-05-05 20:06 | 26.55958 | 50.06448 | 19360 ft | 454 kts | 110° |
| 2026-05-05 20:06 | 26.54947 | 50.09768 | 18724 ft | 448 kts | 110° |
| 2026-05-05 20:07 | 26.53952 | 50.13034 | 18126 ft | 442 kts | 110° |
| 2026-05-05 20:07 | 26.52971 | 50.16260 | 17458 ft | 437 kts | 110° |
| 2026-05-05 20:07 | 26.52008 | 50.19423 | 16785 ft | 432 kts | 110° |
| 2026-05-05 20:07 | 26.51053 | 50.22561 | 16230 ft | 424 kts | 110° |
| 2026-05-05 20:08 | 26.50113 | 50.25647 | 15747 ft | 416 kts | 110° |
| 2026-05-05 20:08 | 26.49183 | 50.28695 | 15269 ft | 413 kts | 110° |
| 2026-05-05 20:08 | 26.48258 | 50.31727 | 14831 ft | 412 kts | 110° |
| 2026-05-05 20:08 | 26.47349 | 50.34753 | 14397 ft | 410 kts | 108° |
| 2026-05-05 20:09 | 26.46896 | 50.37883 | 13953 ft | 409 kts | 90° |
| 2026-05-05 20:09 | 26.47378 | 50.40968 | 13534 ft | 401 kts | 70° |
| 2026-05-05 20:09 | 26.48410 | 50.43818 | 13028 ft | 392 kts | 65° |
| 2026-05-05 20:09 | 26.49481 | 50.46576 | 12570 ft | 383 kts | 65° |
| 2026-05-05 20:10 | 26.50502 | 50.49254 | 12110 ft | 375 kts | 66° |
| 2026-05-05 20:10 | 26.51470 | 50.51930 | 11635 ft | 368 kts | 70° |
| 2026-05-05 20:10 | 26.52008 | 50.54687 | 11191 ft | 362 kts | 85° |
| 2026-05-05 20:10 | 26.51823 | 50.57457 | 10745 ft | 355 kts | 105° |
| 2026-05-05 20:11 | 26.50837 | 50.59931 | 10295 ft | 346 kts | 126° |
| 2026-05-05 20:11 | 26.49190 | 50.61800 | 9859 ft | 335 kts | 147° |
| 2026-05-05 20:11 | 26.47088 | 50.62750 | 9418 ft | 322 kts | 175° |
| 2026-05-05 20:11 | 26.44928 | 50.62521 | 8933 ft | 309 kts | 202° |
| 2026-05-05 20:12 | 26.43214 | 50.61239 | 8487 ft | 299 kts | 229° |
| 2026-05-05 20:12 | 26.41948 | 50.59472 | 8004 ft | 283 kts | 234° |
| 2026-05-05 20:12 | 26.40781 | 50.57773 | 7563 ft | 269 kts | 232° |
| 2026-05-05 20:12 | 26.39635 | 50.56180 | 7122 ft | 261 kts | 231° |
| 2026-05-05 20:13 | 26.38474 | 50.54623 | 6677 ft | 262 kts | 230° |
| 2026-05-05 20:13 | 26.37283 | 50.53065 | 6062 ft | 264 kts | 229° |
| 2026-05-05 20:13 | 26.36125 | 50.51454 | 5140 ft | 270 kts | 231° |
| 2026-05-05 20:13 | 26.34943 | 50.49785 | 4159 ft | 277 kts | 231° |
| 2026-05-05 20:14 | 26.33730 | 50.48113 | 3316 ft | 276 kts | 224° |
| 2026-05-05 20:14 | 26.32204 | 50.46926 | 2763 ft | 262 kts | 205° |
| 2026-05-05 20:14 | 26.30628 | 50.46126 | 2517 ft | 241 kts | 200° |
| 2026-05-05 20:14 | 26.29060 | 50.45658 | 2472 ft | 232 kts | 185° |
| 2026-05-05 20:15 | 26.27454 | 50.45752 | 2478 ft | 230 kts | 164° |
| 2026-05-05 20:15 | 26.26196 | 50.46697 | 2793 ft | 220 kts | 118° |
| 2026-05-05 20:15 | 26.26107 | 50.48328 | 3621 ft | 224 kts | 70° |
| 2026-05-05 20:15 | 26.27082 | 50.49754 | 3977 ft | 239 kts | 49° |
| 2026-05-05 20:16 | 26.28129 | 50.51137 | 4015 ft | 233 kts | 52° |
| 2026-05-05 20:16 | 26.29251 | 50.52518 | 3817 ft | 246 kts | 47° |
| 2026-05-05 20:16 | 26.30487 | 50.53813 | 3343 ft | 246 kts | 44° |
| 2026-05-05 20:16 | 26.31394 | 50.55340 | 2843 ft | 230 kts | 77° |
| 2026-05-05 20:17 | 26.31244 | 50.56977 | 2559 ft | 205 kts | 119° |
| 2026-05-05 20:17 | 26.30344 | 50.58144 | 1931 ft | 200 kts | 139° |
| 2026-05-05 20:17 | 26.29374 | 50.59275 | 1014 ft | 204 kts | 127° |
| 2026-05-05 20:17 | 26.28658 | 50.60585 | 407 ft | 193 kts | 121° |
| 2026-05-05 20:18 | 26.28004 | 50.61776 | 111 ft | 168 kts | 120° |
| 2026-05-05 20:18 | 26.27439 | 50.62783 | 23 ft | 142 kts | 122° |
| 2026-05-05 20:18 | 26.27032 | 50.63464 | 20 ft | 61 kts | 123° |
| 2026-05-05 20:18 | 26.26952 | 50.63603 | 21 ft | 0 kts | 123° |
| 2026-05-05 20:19 | 26.26942 | 50.63619 | 23 ft | 5 kts | 125° |